Flight Track Log - Related Links

Times and Time Zones

All times are in EDT time to prevent confusion due to time zone crossing. See the EJA729 flight status page for this flight to view local times or setup timezone preferences in your user account.


Time Position Orientation Groundspeed Altitude Reporting Facility
EDT Latitude Longitude Course Direction KTS MPH feet Rate Location/Type
Mon 08:58:19 AM 39.5333 -104.8667 303° West 199 229 7,600  Level Denver TRACON
Mon 08:59:19 AM 39.5667 -104.9333 303° West 240 276 11,500 2,895 Climbing Denver TRACON
Mon 09:00:13 AM 39.6000 -105.0167 297° West 315 362 13,100 2,684 Climbing Denver TRACON
Mon 09:01:13 AM 39.6667 -105.1167 311° West 380 437 16,600 2,162 Climbing Denver TRACON
Mon 09:02:29 AM 39.7481 -105.2758 304° West 396 456 18,000 613 Climbing Denver Center
Mon 09:03:30 AM 39.8144 -105.3917 307° West 401 461 18,000  Level Denver Center
Mon 09:04:31 AM 39.8772 -105.5058 306° West 394 453 18,000  Level Denver Center
Mon 09:05:32 AM 39.9361 -105.6233 303° West 393 452 18,000  Level Denver Center
Mon 09:06:33 AM 39.9461 -105.7672 275° West 396 456 18,000  Level Denver Center
Mon 09:07:34 AM 39.9578 -105.9056 276° West 389 448 18,000  Level Denver Center
Mon 09:08:35 AM 39.9681 -106.0208 277° West 395 455 18,000 -393 Level Denver Center
Mon 09:09:36 AM 39.9822 -106.1975 276° West 397 457 17,200 -1,180 Descending Denver Center
Mon 09:10:37 AM 39.9944 -106.3253 277° West 375 432 15,600 -1,574 Descending Denver Center
Mon 09:11:38 AM 39.9742 -106.4386 257° West 356 410 14,000 -787 Descending Denver Center
Mon 09:12:39 AM 39.8956 -106.4867 205° Southwest 326 375 14,000  Level Denver Center
Mon 09:13:40 AM 39.8164 -106.5208 198° South 310 357 14,000 -246 Level Denver Center
Mon 09:14:41 AM 39.7392 -106.5658 204° Southwest 308 354 13,500 -1,033 Descending Denver Center
Mon 09:15:42 AM 39.6881 -106.6525 233° Southwest 300 345 11,900 -1,672 Descending Denver Center
Mon 09:16:43 AM 39.6625 -106.7361 248° West 256 295 10,100 -1,770 Descending Denver Center
Mon 09:17:44 AM 39.6542 -106.8142 262° West 230 265 8,300 -1,721 Descending Denver Center
Mon 09:18:45 AM 39.6458 -106.8853 261° West 185 213 6,600 -1,033 Descending Denver Center
Mon 09:19:46 AM 39.6414 -106.9217 261° West 173 199 6,200 -197 Descending Denver Center
Mon 09:20:47 AM 39.6389 -106.9189 139° Southeast 116 133 6,200  Level Denver Center

Login

Don't have an account? Register now (free) for customized features, flight alerts, and more!